Home   Weather   New Paris   Past weeks
Flag for USA

Past Weather in New Paris, Pennsylvania, USA — Yesterday and Last 2 Weeks

Currently: 32 °F. Low clouds. (Weather station: Bedford County Airport, USA). See more current weather

Past Weather in New Paris — Graph

°F

New Paris Temperature Yesterday

Maximum temperature yesterday: 30 °F (at 6:35 pm)
Minimum temperature yesterday: 25 °F (at 9:35 pm)
Average temperature yesterday: 27 °F

High & Low Weather Summary for the Past Weeks

 TemperatureHumidityPressure
High48 °F (Jan 14, 3:15 pm)99% (Jan 16, 11:15 am)30.31 "Hg (Jan 16, 11:15 am)
Low12 °F (Jan 21, 2:35 am)36% (Jan 12, 4:15 pm)29.48 "Hg (Jan 16, 1:35 pm)
Average31 °F70%29.92 "Hg
* Reported Jan 11 1:15 pm — Jan 26 1:15 pm, New Paris. Weather by CustomWeather, © 2021

Note: Actual official high and low records may vary slightly from our data, if they occured in-between our weather recording intervals... More about our weather records

New Paris Weather History for the Previous 24 Hours

Scroll right to see more
 ConditionsComfort  
Time TempWeatherWind HumidityBarometerVisibility
1:15 pm
Tue, Jan 26
32 °FLow clouds.5 mph98%29.75 "Hg10 mi
12:55 pm32 °FLow clouds.5 mph98%29.75 "Hg10 mi
12:35 pm32 °FLow clouds.7 mph98%29.75 "Hg10 mi
12:15 pm32 °FLow clouds.7 mph98%29.77 "Hg10 mi
11:55 am32 °FLight snow. Low clouds.5 mph98%29.78 "Hg7 mi
11:35 am31 °FLow clouds.7 mph98%29.78 "Hg10 mi
11:15 am31 °FLow clouds.8 mph98%29.80 "Hg10 mi
10:55 am31 °FLow clouds.12 mph97%29.80 "Hg10 mi
10:35 am31 °FLow clouds.7 mph97%29.80 "Hg10 mi
10:15 am31 °FLow clouds.10 mph98%29.81 "Hg10 mi
9:55 am31 °FLow clouds.9 mph98%29.82 "Hg10 mi
9:35 am31 °FLight snow. Low clouds.8 mph97%29.82 "Hg7 mi
9:15 am30 °FLow clouds.8 mph98%29.81 "Hg10 mi
8:55 am31 °FLight snow. Low clouds.7 mph97%29.82 "Hg5 mi
8:35 am30 °FLow clouds.9 mph97%29.82 "Hg7 mi
8:15 am30 °FLow clouds.9 mph98%29.82 "Hg10 mi
7:55 am29 °FIce fog.10 mph98%29.82 "Hg5 mi
7:15 am29 °FIce fog.10 mph98%29.84 "Hg5 mi
6:55 am30 °FLow clouds.10 mph98%29.85 "Hg7 mi
6:35 am30 °FLight snow. Low clouds.10 mph98%29.85 "Hg4 mi
6:15 am29 °FIce fog.6 mph98%29.85 "Hg5 mi
5:55 am29 °FIce fog.8 mph98%29.86 "Hg4 mi
5:35 am29 °FLight snow. Low clouds.6 mph98%29.86 "Hg4 mi
5:15 am28 °FLow clouds.8 mph98%29.87 "Hg7 mi
4:55 am28 °FIce fog.6 mph98%29.87 "Hg5 mi
4:35 am28 °FIce fog.5 mph98%29.87 "Hg5 mi
4:15 am28 °FIce fog.5 mph97%29.88 "Hg5 mi
3:55 am28 °FIce fog.7 mph97%29.88 "Hg5 mi
3:35 am28 °FIce fog.7 mph98%29.89 "Hg5 mi
3:10 am28 °FIce fog.7 mph98%29.90 "Hg5 mi
2:55 am28 °FIce fog.5 mph98%29.92 "Hg5 mi
2:35 am28 °FLow clouds.5 mph98%29.92 "Hg7 mi
2:15 am28 °FIce fog.5 mph98%29.94 "Hg5 mi
1:50 am28 °FIce fog.3 mph98%29.94 "Hg4 mi
1:35 am28 °FIce fog.3 mph97%29.93 "Hg4 mi
1:15 am28 °FLight snow. Low clouds.5 mph98%29.93 "Hg3 mi
12:55 am28 °FLight snow. Low clouds.6 mph98%29.95 "Hg2 mi
12:35 am28 °FLight snow. Low clouds.5 mph98%29.96 "Hg2 mi
9:55 pm
Mon, Jan 25
28 °FIce fog.No wind97%29.98 "Hg3 mi
9:35 pm25 °FLight snow. Overcast.No wind98%30.10 "Hg5 mi
8:15 pm29 °FLight snow. Mostly cloudy.3 mph97%30.01 "Hg2 mi
7:55 pm29 °FOvercast.No wind96%30.01 "Hg7 mi
7:35 pm25 °FLight snow. Mostly cloudy.No wind89%30.12 "Hg4 mi
6:55 pm29 °FLight snow. Overcast.5 mph92%29.97 "Hg5 mi
6:35 pm30 °FLight snow. Overcast.3 mph88%29.99 "Hg7 mi
6:15 pm29 °FOvercast.No wind93%29.98 "Hg10 mi
5:55 pm29 °FOvercast.No wind92%29.97 "Hg10 mi
5:15 pm29 °FOvercast.No wind92%29.98 "Hg10 mi
4:55 pm29 °FOvercast.No wind91%30.00 "Hg10 mi
4:35 pm29 °FOvercast.3 mph93%30.01 "Hg10 mi
4:15 pm29 °FOvercast.3 mph92%30.00 "Hg10 mi
3:55 pm29 °FMostly cloudy.No wind95%30.00 "Hg10 mi
3:35 pm29 °FMostly cloudy.5 mph97%29.99 "Hg7 mi
3:15 pm29 °FLow clouds.3 mph96%30.00 "Hg7 mi
2:55 pm29 °FLow clouds.3 mph96%30.01 "Hg7 mi
2:35 pm29 °FLow clouds.3 mph96%30.02 "Hg7 mi
2:15 pm29 °FLow clouds.No wind97%30.02 "Hg7 mi
Weather by CustomWeather, © 2021

See weather overview